createdAt,value
2018-08-10T00:01:22.347Z,99.90
2018-08-10T00:03:50.122Z,99.90
2018-08-10T00:06:17.939Z,99.90
2018-08-10T00:08:45.697Z,99.90
2018-08-10T00:11:13.419Z,99.90
2018-08-10T00:13:41.188Z,99.90
2018-08-10T00:16:08.999Z,99.90
2018-08-10T00:18:36.800Z,99.90
2018-08-10T00:21:04.526Z,99.90
2018-08-10T00:23:32.263Z,99.90
2018-08-10T00:25:59.998Z,99.90
2018-08-10T00:28:27.759Z,99.90
2018-08-10T00:30:55.535Z,99.90
2018-08-10T00:33:23.315Z,99.90
2018-08-10T00:35:51.110Z,99.90
2018-08-10T00:38:18.859Z,99.90
2018-08-10T00:40:46.696Z,99.90
2018-08-10T00:43:14.463Z,99.90
2018-08-10T00:45:42.322Z,99.90
2018-08-10T00:48:10.032Z,99.90
2018-08-10T00:50:37.798Z,99.90
2018-08-10T00:53:05.579Z,99.90
2018-08-10T00:55:33.286Z,99.90
2018-08-10T00:58:00.999Z,99.90
2018-08-10T01:00:28.678Z,99.90
2018-08-10T01:02:56.478Z,99.90
2018-08-10T01:05:24.306Z,99.90
2018-08-10T01:07:52.106Z,99.90
2018-08-10T01:10:20.451Z,99.90
2018-08-10T01:12:48.279Z,99.70
2018-08-10T01:15:16.978Z,98.80
2018-08-10T01:17:45.323Z,97.90
2018-08-10T01:20:16.749Z,95.10
2018-08-10T01:22:50.262Z,95.00
2018-08-10T01:25:19.054Z,96.30
2018-08-10T01:27:52.551Z,95.00
2018-08-10T01:30:20.670Z,94.40
2018-08-10T01:32:48.507Z,95.40
2018-08-10T01:35:16.303Z,95.60
2018-08-10T01:37:44.136Z,95.90
2018-08-10T01:40:11.912Z,96.10
2018-08-10T01:42:39.651Z,96.40
2018-08-10T01:45:08.459Z,95.60
2018-08-10T01:47:36.287Z,95.80
2018-08-10T01:50:04.707Z,96.30
2018-08-10T01:52:32.452Z,96.00
2018-08-10T01:55:00.224Z,95.70
2018-08-10T01:57:27.962Z,96.00
2018-08-10T01:59:55.700Z,96.70
2018-08-10T02:02:23.470Z,95.80
2018-08-10T02:04:51.283Z,97.10
2018-08-10T02:07:19.021Z,96.40
2018-08-10T02:09:46.751Z,95.60
2018-08-10T02:12:14.531Z,97.00
2018-08-10T02:14:42.313Z,95.20
2018-08-10T02:17:10.081Z,95.70
2018-08-10T02:19:37.835Z,95.70
2018-08-10T02:22:05.593Z,94.20
2018-08-10T02:24:33.377Z,94.80
2018-08-10T02:27:01.209Z,95.10
2018-08-10T02:29:28.928Z,95.50
2018-08-10T02:31:56.727Z,95.50
2018-08-10T02:34:24.501Z,95.70
2018-08-10T02:36:52.223Z,96.30
2018-08-10T02:39:19.931Z,96.10
2018-08-10T02:41:47.712Z,95.10
2018-08-10T02:44:15.466Z,96.60
2018-08-10T02:46:43.278Z,96.90
2018-08-10T02:49:11.125Z,96.80
2018-08-10T02:51:38.830Z,96.40
2018-08-10T02:54:06.579Z,96.10
2018-08-10T02:56:34.350Z,97.30
2018-08-10T02:59:02.079Z,97.90
2018-08-10T03:01:30.184Z,98.00
2018-08-10T03:03:57.983Z,97.90
2018-08-10T03:06:25.686Z,98.60
2018-08-10T03:08:53.429Z,97.80
2018-08-10T03:11:21.211Z,98.30
2018-08-10T03:13:49.030Z,97.50
2018-08-10T03:16:16.740Z,97.50
2018-08-10T03:18:44.520Z,97.40
2018-08-10T03:21:12.284Z,97.10
2018-08-10T03:23:40.028Z,97.50
2018-08-10T03:26:07.755Z,97.20
2018-08-10T03:28:35.552Z,97.90
2018-08-10T03:31:03.347Z,98.40
2018-08-10T03:33:31.615Z,98.40
2018-08-10T03:35:59.389Z,98.30
2018-08-10T03:38:27.172Z,98.70
2018-08-10T03:40:54.920Z,97.90
2018-08-10T03:43:22.720Z,98.40
2018-08-10T03:45:50.495Z,97.80
2018-08-10T03:48:18.231Z,98.40
2018-08-10T03:50:45.972Z,98.30
2018-08-10T03:53:13.743Z,99.00
2018-08-10T03:55:41.507Z,99.70
2018-08-10T03:58:09.256Z,98.80
2018-08-10T04:00:36.975Z,99.20
2018-08-10T04:03:04.798Z,98.00
2018-08-10T04:05:32.583Z,98.30
2018-08-10T04:08:00.347Z,98.30
2018-08-10T04:10:28.186Z,98.40
2018-08-10T04:12:56.076Z,98.90
2018-08-10T04:15:23.902Z,98.70
2018-08-10T04:17:51.679Z,98.50
2018-08-10T04:20:19.491Z,97.20
2018-08-10T04:22:47.278Z,97.50
2018-08-10T04:25:15.071Z,97.90
2018-08-10T04:27:42.824Z,96.90
2018-08-10T04:30:11.067Z,96.70
2018-08-10T04:32:39.106Z,96.80
2018-08-10T04:35:07.043Z,97.20
2018-08-10T04:37:34.839Z,97.10
2018-08-10T04:40:02.699Z,97.30
2018-08-10T04:42:30.467Z,96.70
2018-08-10T04:44:58.288Z,96.10
2018-08-10T04:47:26.072Z,95.30
2018-08-10T04:49:53.882Z,94.60
2018-08-10T04:52:21.680Z,94.50
2018-08-10T04:54:49.459Z,95.10
2018-08-10T04:57:17.223Z,95.50
2018-08-10T04:59:44.964Z,93.90
2018-08-10T05:02:12.809Z,93.50
2018-08-10T05:04:40.576Z,92.80
2018-08-10T05:07:08.423Z,92.90
2018-08-10T05:09:36.200Z,92.90
2018-08-10T05:12:04.039Z,92.90
2018-08-10T05:14:31.815Z,93.00
2018-08-10T05:16:59.631Z,92.00
2018-08-10T05:19:27.471Z,92.00
2018-08-10T05:21:55.234Z,92.20
2018-08-10T05:24:22.979Z,92.30
2018-08-10T05:26:50.756Z,92.40
2018-08-10T05:29:18.533Z,92.80
2018-08-10T05:31:46.359Z,92.40
2018-08-10T05:34:14.139Z,91.80
2018-08-10T05:36:41.914Z,92.00
2018-08-10T05:39:10.821Z,92.00
2018-08-10T05:41:38.629Z,91.40
2018-08-10T05:44:06.424Z,91.60
2018-08-10T05:46:34.159Z,90.70
2018-08-10T05:49:01.922Z,90.70
2018-08-10T05:51:29.668Z,90.60
2018-08-10T05:53:57.480Z,91.20
2018-08-10T05:56:25.188Z,90.30
2018-08-10T05:58:52.941Z,90.40
2018-08-10T06:01:20.688Z,90.00
2018-08-10T06:03:48.564Z,90.10
2018-08-10T06:06:16.223Z,88.90
2018-08-10T06:08:43.943Z,87.90
2018-08-10T06:11:11.673Z,88.50
2018-08-10T06:13:39.399Z,86.60
2018-08-10T06:16:07.156Z,86.30
2018-08-10T06:18:34.894Z,84.40
2018-08-10T06:21:02.615Z,84.70
2018-08-10T06:23:30.361Z,85.20
2018-08-10T06:25:58.090Z,84.10
2018-08-10T06:28:25.850Z,82.80
2018-08-10T06:30:53.652Z,82.70
2018-08-10T06:33:21.375Z,82.90
2018-08-10T06:35:49.126Z,81.30
2018-08-10T06:38:16.882Z,81.40
2018-08-10T06:40:44.635Z,81.30
2018-08-10T06:43:12.387Z,81.60
2018-08-10T06:45:40.183Z,78.50
2018-08-10T06:48:07.907Z,77.80
2018-08-10T06:50:35.647Z,77.40
2018-08-10T06:53:03.464Z,76.00
2018-08-10T06:55:31.264Z,75.80
2018-08-10T06:57:58.998Z,73.30
2018-08-10T07:00:26.823Z,72.60
2018-08-10T07:02:54.519Z,69.50
2018-08-10T07:05:22.320Z,70.50
2018-08-10T07:07:50.071Z,69.90
2018-08-10T07:10:17.848Z,68.50
2018-08-10T07:12:45.573Z,66.20
2018-08-10T07:15:13.305Z,63.10
2018-08-10T07:17:41.070Z,62.50
2018-08-10T07:20:08.890Z,63.10
2018-08-10T07:22:36.707Z,62.60
2018-08-10T07:25:05.010Z,60.50
2018-08-10T07:27:32.787Z,59.70
2018-08-10T07:30:00.503Z,59.20
2018-08-10T07:32:28.271Z,58.20
2018-08-10T07:34:55.993Z,56.50
2018-08-10T07:37:23.848Z,56.20
2018-08-10T07:39:51.543Z,55.70
2018-08-10T07:42:19.360Z,54.90
2018-08-10T07:44:47.099Z,54.90
2018-08-10T07:47:14.876Z,53.30
2018-08-10T07:49:42.695Z,53.00
2018-08-10T07:52:10.487Z,52.90
2018-08-10T07:54:38.219Z,52.10
2018-08-10T07:57:05.984Z,52.00
2018-08-10T07:59:33.764Z,52.30
2018-08-10T08:02:01.592Z,52.00
2018-08-10T08:04:29.513Z,51.30
2018-08-10T08:06:57.378Z,49.60
2018-08-10T08:09:25.151Z,48.60
2018-08-10T08:11:52.948Z,47.20
2018-08-10T08:14:20.691Z,46.30
2018-08-10T08:16:48.533Z,45.80
2018-08-10T08:19:16.333Z,44.20
2018-08-10T08:22:15.368Z,42.90
2018-08-10T08:24:43.391Z,42.50
2018-08-10T08:27:12.390Z,41.00
2018-08-10T08:29:40.111Z,37.90
2018-08-10T08:32:07.948Z,36.50
2018-08-10T08:34:35.735Z,35.40
2018-08-10T08:37:04.260Z,33.20
2018-08-10T08:40:37.318Z,31.00
2018-08-10T08:43:05.107Z,29.30
2018-08-10T08:45:43.346Z,28.20
2018-08-10T08:48:11.133Z,27.70
2018-08-10T08:50:40.770Z,27.20
2018-08-10T08:53:08.536Z,28.70
2018-08-10T08:55:38.899Z,29.40
2018-08-10T08:58:07.275Z,29.20
2018-08-10T09:00:35.423Z,28.60
2018-08-10T09:03:03.246Z,28.20
2018-08-10T09:05:31.019Z,28.90
2018-08-10T09:07:58.812Z,27.50
2018-08-10T09:10:26.568Z,27.10
2018-08-10T09:12:54.371Z,26.30
2018-08-10T09:15:22.848Z,26.50
2018-08-10T09:17:50.610Z,25.70
2018-08-10T09:20:18.385Z,25.30
2018-08-10T09:22:46.195Z,25.20
2018-08-10T09:25:16.455Z,25.70
2018-08-10T09:27:44.248Z,25.50
2018-08-10T09:30:14.215Z,26.00
2018-08-10T09:32:42.343Z,26.90
2018-08-10T09:35:11.125Z,26.20
2018-08-10T09:37:38.958Z,25.10
2018-08-10T09:40:11.645Z,24.10
2018-08-10T09:42:39.511Z,23.20
2018-08-10T09:45:08.293Z,25.10
2018-08-10T09:47:36.085Z,25.20
2018-08-10T09:50:04.785Z,24.70
2018-08-10T09:52:32.621Z,23.40
2018-08-10T09:55:18.456Z,22.00
2018-08-10T09:57:46.590Z,22.80
2018-08-10T10:00:20.043Z,24.90
2018-08-10T10:02:53.818Z,25.20
2018-08-10T10:05:23.134Z,23.90
2018-08-10T10:07:51.083Z,22.30
2018-08-10T10:10:18.903Z,22.50
2018-08-10T10:12:46.725Z,23.90
2018-08-10T10:15:14.651Z,25.60
2018-08-10T10:17:42.449Z,24.80
2018-08-10T10:20:10.295Z,22.70
2018-08-10T10:22:38.139Z,21.10
2018-08-10T10:25:06.054Z,21.20
2018-08-10T10:27:33.975Z,20.60
2018-08-10T10:30:01.895Z,19.50
2018-08-10T10:32:30.058Z,17.80
2018-08-10T10:34:57.827Z,18.00
2018-08-10T10:37:25.571Z,20.10
2018-08-10T10:39:53.512Z,22.70
2018-08-10T10:42:21.447Z,22.60
2018-08-10T10:44:49.712Z,20.20
2018-08-10T10:47:17.538Z,18.70
2018-08-10T10:49:45.392Z,16.70
2018-08-10T10:52:13.156Z,16.90
2018-08-10T10:54:40.907Z,16.30
2018-08-10T10:57:08.715Z,17.00
2018-08-10T10:59:36.499Z,16.20
2018-08-10T11:02:04.286Z,14.70
2018-08-10T11:04:32.080Z,14.70
2018-08-10T11:06:59.848Z,13.60
2018-08-10T11:09:27.572Z,13.80
2018-08-10T11:11:55.348Z,15.70
2018-08-10T11:14:23.038Z,15.50
2018-08-10T11:16:50.814Z,16.00
2018-08-10T11:19:18.571Z,15.90
2018-08-10T11:21:46.324Z,16.20
2018-08-10T11:24:14.076Z,15.10
2018-08-10T11:26:41.927Z,16.10
2018-08-10T11:29:09.640Z,15.90
2018-08-10T11:31:37.408Z,16.20
2018-08-10T11:34:05.299Z,15.90
2018-08-10T11:36:33.048Z,19.30
2018-08-10T11:39:00.911Z,21.00
2018-08-10T11:41:28.707Z,19.90
2018-08-10T11:43:56.430Z,18.80
2018-08-10T11:46:24.214Z,19.40
2018-08-10T11:48:56.400Z,20.20
2018-08-10T11:51:24.384Z,21.00
2018-08-10T11:53:52.423Z,19.70
2018-08-10T11:56:20.329Z,17.80
2018-08-10T11:58:48.087Z,16.60
2018-08-10T12:01:15.851Z,16.50
2018-08-10T12:03:44.317Z,17.30
2018-08-10T12:06:12.042Z,16.20
2018-08-10T12:08:39.782Z,15.30
2018-08-10T12:11:07.495Z,14.60
2018-08-10T12:13:35.216Z,13.50
2018-08-10T12:16:03.059Z,13.80
2018-08-10T12:18:30.767Z,15.60
2018-08-10T12:20:58.567Z,16.50
2018-08-10T12:23:26.347Z,16.10
2018-08-10T12:25:54.097Z,15.80
2018-08-10T12:28:21.872Z,16.20
2018-08-10T12:30:49.670Z,16.70
2018-08-10T12:33:17.465Z,15.60
2018-08-10T12:35:45.215Z,13.30
2018-08-10T12:38:12.963Z,13.30
2018-08-10T12:40:40.762Z,13.80
2018-08-10T12:43:08.762Z,15.80
2018-08-10T12:45:36.507Z,16.90
2018-08-10T12:48:05.784Z,16.70
2018-08-10T12:50:33.671Z,17.50
2018-08-10T12:53:01.476Z,18.70
2018-08-10T12:55:29.300Z,18.50
2018-08-10T12:57:57.101Z,17.00
2018-08-10T13:00:25.008Z,14.70
2018-08-10T13:02:52.853Z,14.00
2018-08-10T13:05:20.620Z,13.90
2018-08-10T13:07:48.443Z,14.30
2018-08-10T13:10:16.232Z,15.80
2018-08-10T13:12:43.974Z,15.90
2018-08-10T13:15:12.654Z,15.70
2018-08-10T13:17:40.547Z,17.30
2018-08-10T13:20:10.587Z,18.40
2018-08-10T13:22:38.480Z,19.10
2018-08-10T13:25:07.114Z,16.90
2018-08-10T13:27:34.936Z,15.40
2018-08-10T13:30:02.782Z,15.80
2018-08-10T13:32:30.571Z,15.60
2018-08-10T13:34:58.326Z,15.40
2018-08-10T13:37:26.144Z,14.70
2018-08-10T13:39:53.990Z,15.20
2018-08-10T13:42:21.727Z,16.00
2018-08-10T13:44:49.538Z,16.80
2018-08-10T13:47:17.283Z,17.10
2018-08-10T13:49:45.082Z,17.70
2018-08-10T13:52:12.852Z,18.10
2018-08-10T13:54:40.629Z,19.00
2018-08-10T13:57:08.449Z,16.90
2018-08-10T13:59:36.261Z,15.90
2018-08-10T14:02:04.075Z,14.20
2018-08-10T14:04:31.968Z,14.40
2018-08-10T14:06:59.784Z,14.00
2018-08-10T14:09:27.613Z,15.20
2018-08-10T14:12:36.974Z,15.60
2018-08-10T14:15:05.267Z,15.80
2018-08-10T14:17:33.241Z,15.50
2018-08-10T14:20:00.990Z,15.90
2018-08-10T14:22:28.711Z,15.80
2018-08-10T14:24:56.538Z,15.20
2018-08-10T14:27:24.365Z,14.40
2018-08-10T14:29:52.145Z,15.70
2018-08-10T14:32:19.961Z,16.50
2018-08-10T14:34:47.757Z,15.90
2018-08-10T14:37:15.584Z,15.60
2018-08-10T14:39:43.338Z,15.60
2018-08-10T14:42:11.071Z,16.00
2018-08-10T14:44:38.782Z,15.80
2018-08-10T14:47:06.527Z,15.00
2018-08-10T14:49:34.316Z,14.20
2018-08-10T14:52:02.163Z,14.50
2018-08-10T14:54:29.928Z,15.40
2018-08-10T14:56:57.694Z,15.30
2018-08-10T14:59:25.520Z,15.20
2018-08-10T15:01:53.338Z,16.70
2018-08-10T15:04:21.128Z,17.60
2018-08-10T15:06:48.964Z,17.50
2018-08-10T15:09:16.704Z,17.70
2018-08-10T15:11:44.551Z,18.50
2018-08-10T15:14:12.316Z,18.30
2018-08-10T15:16:40.655Z,18.80
2018-08-10T15:19:08.424Z,17.10
2018-08-10T15:21:57.979Z,17.80
2018-08-10T15:24:26.154Z,18.00
2018-08-10T15:26:53.972Z,18.00
2018-08-10T15:29:21.771Z,18.50
2018-08-10T15:31:49.641Z,18.90
2018-08-10T15:34:17.406Z,18.60
2018-08-10T15:36:45.338Z,18.10
2018-08-10T15:39:13.067Z,18.60
2018-08-10T15:41:40.929Z,17.40
2018-08-10T15:44:08.764Z,16.90
2018-08-10T15:46:36.555Z,17.20
2018-08-10T15:49:04.623Z,17.90
2018-08-10T15:51:32.443Z,17.30
2018-08-10T15:54:00.183Z,17.60
2018-08-10T15:56:27.961Z,18.50
2018-08-10T15:58:55.859Z,18.50
2018-08-10T16:01:23.644Z,18.80
2018-08-10T16:03:51.409Z,18.20
2018-08-10T16:06:19.246Z,18.40
2018-08-10T16:08:47.015Z,18.70
2018-08-10T16:11:14.874Z,18.60
2018-08-10T16:13:42.705Z,19.50
2018-08-10T16:16:10.515Z,18.70
2018-08-10T16:18:38.259Z,18.70
2018-08-10T16:21:06.068Z,18.80
2018-08-10T16:23:33.791Z,18.90
2018-08-10T16:26:01.588Z,18.80
2018-08-10T16:28:29.433Z,18.90
2018-08-10T16:30:57.279Z,19.10
2018-08-10T16:33:25.067Z,19.20
2018-08-10T16:35:52.852Z,19.50
2018-08-10T16:38:20.623Z,20.20
2018-08-10T16:40:48.459Z,20.10
2018-08-10T16:43:16.319Z,20.10
2018-08-10T16:45:44.143Z,20.40
2018-08-10T16:48:12.009Z,20.90
2018-08-10T16:50:39.816Z,20.90
2018-08-10T16:53:07.626Z,20.90
2018-08-10T16:55:35.351Z,21.20
2018-08-10T16:58:03.231Z,21.00
2018-08-10T17:00:31.138Z,21.20
2018-08-10T17:02:58.931Z,21.10
2018-08-10T17:05:26.693Z,21.70
2018-08-10T17:07:54.519Z,21.90
2018-08-10T17:10:22.320Z,21.10
2018-08-10T17:12:50.108Z,21.30
2018-08-10T17:15:19.018Z,21.60
2018-08-10T17:17:47.542Z,22.20
2018-08-10T17:20:16.127Z,21.50
2018-08-10T17:22:44.140Z,21.40
2018-08-10T17:25:13.959Z,22.00
2018-08-10T17:27:41.793Z,21.90
2018-08-10T17:30:12.003Z,21.80
2018-08-10T17:32:39.831Z,21.20
2018-08-10T17:35:08.917Z,21.60
2018-08-10T17:37:36.826Z,21.90
2018-08-10T17:40:05.802Z,21.80
2018-08-10T17:42:33.775Z,22.50
2018-08-10T17:45:01.632Z,22.60
2018-08-10T17:47:29.472Z,22.80
2018-08-10T17:49:57.334Z,22.90
2018-08-10T17:52:25.132Z,23.80
2018-08-10T17:54:52.897Z,23.30
2018-08-10T17:57:20.683Z,23.30
2018-08-10T17:59:48.528Z,23.40
2018-08-10T18:02:16.351Z,23.30
2018-08-10T18:04:44.202Z,23.10
2018-08-10T18:07:11.952Z,24.50
2018-08-10T18:09:39.848Z,23.90
2018-08-10T18:12:07.666Z,24.10
2018-08-10T18:14:35.573Z,24.40
2018-08-10T18:17:03.418Z,24.50
2018-08-10T18:19:31.210Z,24.20
2018-08-10T18:21:59.077Z,24.80
2018-08-10T18:24:26.858Z,24.30
2018-08-10T18:26:54.682Z,24.50
2018-08-10T18:29:22.520Z,24.50
2018-08-10T18:31:50.310Z,24.70
2018-08-10T18:34:18.194Z,25.30
2018-08-10T18:36:45.980Z,25.40
2018-08-10T18:39:13.924Z,25.40
2018-08-10T18:41:42.076Z,25.30
2018-08-10T18:44:10.239Z,25.20
2018-08-10T18:46:38.814Z,25.60
2018-08-10T18:49:06.795Z,25.60
2018-08-10T18:51:34.715Z,25.60
2018-08-10T18:54:02.952Z,25.70
2018-08-10T18:56:30.843Z,25.60
2018-08-10T18:58:58.648Z,25.50
2018-08-10T19:01:26.528Z,25.70
2018-08-10T19:03:54.400Z,25.40
2018-08-10T19:06:22.240Z,25.60
2018-08-10T19:08:50.032Z,25.70
2018-08-10T19:11:17.900Z,25.90
2018-08-10T19:13:45.753Z,25.90
2018-08-10T19:16:13.657Z,26.00
2018-08-10T19:18:41.507Z,25.90
2018-08-10T19:21:09.348Z,26.60
2018-08-10T19:23:37.158Z,26.40
2018-08-10T19:26:05.113Z,26.60
2018-08-10T19:28:32.809Z,26.70
2018-08-10T19:31:00.571Z,26.60
2018-08-10T19:33:28.302Z,27.20
2018-08-10T19:35:56.081Z,27.40
2018-08-10T19:38:23.778Z,27.40
2018-08-10T19:40:51.511Z,27.10
2018-08-10T19:43:19.207Z,27.40
2018-08-10T19:45:46.930Z,27.20
2018-08-10T19:48:14.685Z,27.30
2018-08-10T19:50:42.456Z,27.20
2018-08-10T19:53:10.235Z,27.50
2018-08-10T19:55:38.138Z,28.20
2018-08-10T19:58:06.326Z,28.20
2018-08-10T20:00:34.136Z,27.70
2018-08-10T20:03:01.934Z,27.90
2018-08-10T20:05:29.687Z,28.20
2018-08-10T20:07:57.451Z,28.10
2018-08-10T20:10:25.319Z,28.10
2018-08-10T20:12:53.143Z,28.20
2018-08-10T20:15:21.145Z,28.20
2018-08-10T20:17:48.820Z,28.80
2018-08-10T20:20:17.849Z,28.80
2018-08-10T20:22:46.039Z,29.50
2018-08-10T20:25:14.415Z,28.70
2018-08-10T20:27:42.146Z,29.10
2018-08-10T20:30:13.926Z,29.10
2018-08-10T20:32:41.843Z,29.70
2018-08-10T20:35:11.448Z,29.60
2018-08-10T20:37:40.224Z,29.80
2018-08-10T20:40:09.519Z,30.00
2018-08-10T20:42:37.306Z,30.50
2018-08-10T20:45:05.795Z,30.60
2018-08-10T20:47:33.623Z,30.30
2018-08-10T20:50:01.416Z,30.70
2018-08-10T20:52:29.215Z,31.20
2018-08-10T20:54:57.199Z,31.20
2018-08-10T20:57:25.026Z,31.60
2018-08-10T20:59:52.798Z,31.70
2018-08-10T21:02:20.582Z,31.20
2018-08-10T21:04:48.359Z,31.90
2018-08-10T21:07:16.150Z,32.10
2018-08-10T21:09:43.923Z,31.80
2018-08-10T21:12:11.783Z,31.90
2018-08-10T21:14:39.522Z,32.10
2018-08-10T21:17:07.359Z,31.70
2018-08-10T21:19:35.152Z,32.10
2018-08-10T21:22:03.045Z,31.50
2018-08-10T21:24:30.816Z,32.10
2018-08-10T21:26:58.619Z,32.50
2018-08-10T21:29:26.390Z,33.20
2018-08-10T21:31:54.178Z,33.70
2018-08-10T21:34:21.935Z,34.20
2018-08-10T21:36:49.692Z,34.20
2018-08-10T21:39:17.412Z,34.90
2018-08-10T21:41:45.194Z,34.70
2018-08-10T21:44:12.903Z,34.80
2018-08-10T21:46:40.759Z,35.60
2018-08-10T21:49:08.508Z,35.30
2018-08-10T21:51:36.280Z,35.10
2018-08-10T21:54:04.098Z,35.40
2018-08-10T21:56:31.902Z,35.90
2018-08-10T21:58:59.739Z,36.50
2018-08-10T22:01:27.563Z,36.40
2018-08-10T22:03:55.354Z,36.30
2018-08-10T22:06:23.136Z,36.70
2018-08-10T22:08:50.932Z,36.70
2018-08-10T22:11:18.700Z,37.10
2018-08-10T22:13:52.150Z,37.10
2018-08-10T22:16:25.560Z,37.20
2018-08-10T22:18:59.069Z,37.70
2018-08-10T22:21:26.869Z,38.10
2018-08-10T22:23:54.669Z,38.10
2018-08-10T22:26:22.487Z,38.90
2018-08-10T22:28:50.316Z,38.60
2018-08-10T22:31:18.134Z,39.40
2018-08-10T22:33:45.919Z,39.10
2018-08-10T22:36:13.652Z,39.30
2018-08-10T22:38:41.421Z,39.20
2018-08-10T22:41:09.253Z,39.80
2018-08-10T22:43:37.120Z,40.20
2018-08-10T22:46:04.989Z,40.30
2018-08-10T22:48:32.790Z,40.70
2018-08-10T22:51:00.662Z,40.90
2018-08-10T22:53:28.478Z,40.80
2018-08-10T22:55:56.304Z,40.90
2018-08-10T22:58:24.162Z,41.30
2018-08-10T23:00:51.972Z,41.20
2018-08-10T23:03:19.884Z,41.00
2018-08-10T23:05:47.715Z,41.70
2018-08-10T23:08:15.510Z,41.30
2018-08-10T23:10:43.377Z,41.50
2018-08-10T23:13:11.275Z,42.00
2018-08-10T23:15:39.136Z,42.60
2018-08-10T23:18:06.980Z,43.90
2018-08-10T23:20:34.787Z,43.00
2018-08-10T23:23:02.643Z,43.00
2018-08-10T23:25:30.457Z,43.00
2018-08-10T23:27:58.865Z,43.10
2018-08-10T23:30:26.651Z,43.10
2018-08-10T23:33:01.070Z,43.10
2018-08-10T23:35:28.963Z,42.80
2018-08-10T23:37:56.782Z,42.80
2018-08-10T23:40:24.569Z,43.00
2018-08-10T23:42:52.346Z,43.40
2018-08-10T23:45:20.085Z,43.00
2018-08-10T23:47:47.840Z,43.00
2018-08-10T23:50:16.663Z,42.70
2018-08-10T23:52:45.072Z,42.70
2018-08-10T23:55:14.715Z,43.20
2018-08-10T23:57:42.485Z,42.80
